Time;durP1;ratioP1;P1;durP2;ratioP2;P2;SDS_P1;SDS_P2;PMS_P1;PMS_P2;Temp;Humidity;BMP_temperature;BMP_pressure;BME280_temperature;BME280_humidity;BME280_pressure;Samples;Min_cycle;Max_cycle;Signal;HPM_P1;HPM_P2
2024/03/19 00:01:43;;;;;;;15.30;6.65;;;15.90;92.80;;;;;;5116660;28;20664;-80
2024/03/19 00:04:08;;;;;;;16.77;6.50;;;15.90;92.80;;;;;;5116435;28;20540;-77
2024/03/19 00:06:34;;;;;;;16.85;6.53;;;15.90;92.90;;;;;;5116670;28;20059;-79
2024/03/19 00:09:00;;;;;;;17.35;6.43;;;15.90;92.90;;;;;;5116387;28;20032;-78
2024/03/19 00:11:26;;;;;;;13.15;6.38;;;15.90;92.90;;;;;;5116333;28;20513;-79
2024/03/19 00:13:52;;;;;;;17.60;6.18;;;15.80;93.00;;;;;;5116405;28;20028;-78
2024/03/19 00:16:18;;;;;;;17.98;6.85;;;15.80;93.00;;;;;;5116461;28;20111;-79
2024/03/19 00:18:43;;;;;;;17.17;6.70;;;15.80;93.00;;;;;;5116661;28;20217;-79
2024/03/19 00:21:12;;;;;;;18.85;7.03;;;15.80;93.10;;;;;;5117056;28;20039;-78
2024/03/19 00:23:38;;;;;;;16.80;6.45;;;15.80;93.20;;;;;;5098239;28;20541;-79
2024/03/19 00:26:07;;;;;;;17.05;6.68;;;15.70;93.20;;;;;;5116849;28;20102;-77
2024/03/19 00:28:36;;;;;;;18.15;7.38;;;15.70;93.40;;;;;;5116849;28;20035;-79
2024/03/19 00:31:02;;;;;;;14.05;6.95;;;15.70;93.40;;;;;;5116448;28;20043;-78
2024/03/19 00:33:28;;;;;;;16.70;7.60;;;15.70;93.50;;;;;;5096205;28;20028;-78
2024/03/19 00:35:55;;;;;;;15.60;7.05;;;15.70;93.40;;;;;;5116283;28;20498;-80
2024/03/19 00:38:22;;;;;;;16.73;7.72;;;15.80;93.60;;;;;;5116364;28;20487;-78
2024/03/19 00:40:48;;;;;;;20.63;7.97;;;15.80;93.60;;;;;;5098867;28;20479;-77
2024/03/19 00:43:13;;;;;;;20.20;8.10;;;15.80;93.60;;;;;;5117090;28;20027;-77
2024/03/19 00:45:39;;;;;;;17.33;7.43;;;15.80;93.70;;;;;;5116190;28;20032;-78
2024/03/19 00:48:05;;;;;;;18.42;8.23;;;15.80;93.70;;;;;;5115785;28;20024;-78
2024/03/19 00:50:31;;;;;;;14.43;7.85;;;15.90;93.70;;;;;;5115719;28;20107;-78
2024/03/19 00:52:57;;;;;;;18.05;7.75;;;15.90;93.80;;;;;;5115533;28;20114;-78
2024/03/19 00:55:22;;;;;;;15.32;7.88;;;15.90;93.80;;;;;;5115265;28;20035;-80
2024/03/19 00:57:48;;;;;;;19.20;7.25;;;15.90;93.80;;;;;;5114880;28;20115;-77
2024/03/19 01:00:14;;;;;;;18.92;8.15;;;16.00;93.70;;;;;;5115060;28;20044;-79
2024/03/19 01:02:43;;;;;;;17.85;6.93;;;16.00;93.70;;;;;;5115176;28;20023;-79
2024/03/19 01:05:11;;;;;;;20.55;8.63;;;16.00;93.80;;;;;;5115080;28;20035;-78
2024/03/19 01:07:43;;;;;;;19.15;7.90;;;16.00;93.70;;;;;;5115251;28;20366;-79
2024/03/19 01:10:10;;;;;;;21.85;8.02;;;16.00;93.80;;;;;;5115005;28;20034;-78
2024/03/19 01:12:36;;;;;;;23.02;9.00;;;16.00;93.80;;;;;;5114622;28;20055;-77
2024/03/19 01:15:02;;;;;;;20.58;8.32;;;16.00;93.80;;;;;;5110118;28;20039;-77
2024/03/19 01:17:28;;;;;;;17.73;8.23;;;16.00;93.80;;;;;;5114755;28;20388;-77
2024/03/19 01:19:54;;;;;;;16.75;7.85;;;16.00;93.80;;;;;;5114999;28;20032;-78
2024/03/19 01:22:19;;;;;;;20.38;8.20;;;16.00;93.90;;;;;;5114753;28;20109;-78
2024/03/19 01:24:45;;;;;;;21.65;8.10;;;16.00;93.90;;;;;;5114677;28;20031;-78
2024/03/19 01:27:11;;;;;;;15.38;7.72;;;16.10;93.90;;;;;;5114552;28;20066;-79
2024/03/19 01:29:37;;;;;;;18.55;8.48;;;16.10;93.90;;;;;;5096232;28;20392;-79
2024/03/19 01:32:04;;;;;;;19.25;8.60;;;16.10;93.80;;;;;;5114525;28;20124;-78
2024/03/19 01:34:30;;;;;;;16.80;7.47;;;16.00;93.80;;;;;;5114691;28;20086;-79
2024/03/19 01:36:55;;;;;;;18.30;8.40;;;16.00;93.80;;;;;;5114206;28;20464;-77
2024/03/19 01:39:22;;;;;;;20.23;8.10;;;16.00;93.80;;;;;;5114748;28;20034;-79
2024/03/19 01:41:54;;;;;;;25.05;8.38;;;16.00;93.90;;;;;;5114310;28;20314;-79
2024/03/19 01:44:21;;;;;;;13.80;8.40;;;16.00;93.80;;;;;;5113969;28;20036;-79
2024/03/19 01:46:47;;;;;;;16.13;8.55;;;15.90;93.90;;;;;;5114144;28;20418;-79
2024/03/19 01:49:14;;;;;;;15.35;8.15;;;15.90;93.90;;;;;;5114012;28;20210;-77
2024/03/19 01:51:41;;;;;;;17.90;8.90;;;15.80;93.90;;;;;;5113770;28;20082;-78
2024/03/19 01:54:08;;;;;;;16.95;8.30;;;15.80;94.00;;;;;;5113790;28;20067;-77
2024/03/19 01:56:34;;;;;;;22.67;8.65;;;15.80;94.00;;;;;;5114371;28;20032;-77
2024/03/19 01:59:00;;;;;;;19.02;9.02;;;15.80;94.00;;;;;;5114377;28;20042;-77
2024/03/19 02:01:26;;;;;;;19.08;9.23;;;15.80;94.00;;;;;;5113747;28;20391;-77
2024/03/19 02:03:53;;;;;;;20.08;9.40;;;15.80;94.00;;;;;;5113710;28;20036;-78
2024/03/19 02:06:20;;;;;;;18.15;9.10;;;15.80;94.10;;;;;;5113180;28;20027;-80
2024/03/19 02:09:05;;;;;;;19.42;9.30;;;15.90;94.10;;;;;;5113943;28;20040;-78
2024/03/19 02:11:32;;;;;;;19.65;8.57;;;15.90;94.00;;;;;;5113900;28;20035;-80
2024/03/19 02:14:02;;;;;;;23.33;9.02;;;15.90;94.00;;;;;;5095534;28;20107;-80
2024/03/19 02:16:27;;;;;;;19.08;8.65;;;15.90;94.10;;;;;;5113795;28;20032;-79
2024/03/19 02:18:57;;;;;;;20.20;10.07;;;15.90;94.10;;;;;;5113437;28;20105;-78
2024/03/19 02:21:23;;;;;;;19.30;9.60;;;15.90;94.10;;;;;;5113158;28;20154;-78
2024/03/19 02:23:49;;;;;;;21.95;10.02;;;15.90;94.00;;;;;;5113253;28;20083;-78
2024/03/19 02:26:15;;;;;;;19.65;9.52;;;15.90;94.10;;;;;;5113288;28;20114;-78
2024/03/19 02:28:40;;;;;;;19.67;9.85;;;15.90;94.10;;;;;;5113277;28;20034;-78
2024/03/19 02:31:06;;;;;;;19.52;9.75;;;15.80;94.10;;;;;;5113111;28;20036;-78
2024/03/19 02:33:31;;;;;;;22.48;10.63;;;15.80;94.10;;;;;;5112789;28;20027;-78
2024/03/19 02:35:57;;;;;;;18.70;9.32;;;15.80;94.20;;;;;;5112949;28;20035;-78
2024/03/19 02:38:24;;;;;;;19.52;9.68;;;15.80;94.20;;;;;;5094813;28;20441;-78
2024/03/19 02:40:50;;;;;;;22.80;10.45;;;15.80;94.20;;;;;;5112969;28;20036;-77
2024/03/19 02:43:15;;;;;;;21.90;10.30;;;15.90;94.30;;;;;;5094761;28;20123;-79
2024/03/19 02:45:41;;;;;;;25.98;10.65;;;15.90;94.30;;;;;;5113536;28;20054;-78
2024/03/19 02:48:07;;;;;;;21.70;9.55;;;15.90;94.30;;;;;;5115838;28;20460;-78
2024/03/19 02:50:32;;;;;;;21.77;11.10;;;15.90;94.30;;;;;;5113524;28;20073;-78
2024/03/19 02:52:58;;;;;;;16.98;9.45;;;15.90;94.30;;;;;;5114481;28;20039;-78
2024/03/19 02:55:24;;;;;;;21.15;10.32;;;15.90;94.30;;;;;;5113689;28;20024;-77
2024/03/19 02:57:49;;;;;;;20.45;9.95;;;15.90;94.40;;;;;;5112617;28;20111;-78
2024/03/19 03:00:15;;;;;;;24.50;10.77;;;15.80;94.40;;;;;;5094622;28;20036;-77
2024/03/19 03:02:41;;;;;;;18.98;10.30;;;15.80;94.50;;;;;;5094487;28;20054;-78
2024/03/19 03:05:07;;;;;;;27.55;9.98;;;15.80;94.50;;;;;;5112940;28;20066;-79
2024/03/19 03:07:32;;;;;;;24.55;9.52;;;15.70;94.50;;;;;;5112592;28;20039;-79
2024/03/19 03:09:58;;;;;;;19.27;10.20;;;15.80;94.60;;;;;;5112825;28;20391;-76
2024/03/19 03:12:24;;;;;;;24.60;10.57;;;15.80;94.50;;;;;;5112490;28;20043;-78
2024/03/19 03:14:49;;;;;;;16.48;10.13;;;15.70;94.70;;;;;;5112797;28;20027;-77
2024/03/19 03:17:15;;;;;;;24.15;9.73;;;15.70;94.70;;;;;;5112603;28;20051;-79
2024/03/19 03:19:40;;;;;;;23.38;10.50;;;15.70;94.70;;;;;;5112799;28;20031;-78
2024/03/19 03:22:07;;;;;;;22.48;11.25;;;15.60;94.80;;;;;;5112753;28;20056;-78
2024/03/19 03:24:32;;;;;;;21.27;10.10;;;15.60;94.80;;;;;;5113051;28;20494;-79
2024/03/19 03:26:58;;;;;;;24.90;11.27;;;15.60;94.90;;;;;;5113154;28;20044;-78
2024/03/19 03:29:27;;;;;;;21.77;10.68;;;15.60;94.90;;;;;;5094506;28;20038;-78
2024/03/19 03:31:52;;;;;;;17.90;10.43;;;15.50;94.90;;;;;;5112505;28;20044;-77
2024/03/19 03:34:18;;;;;;;17.50;9.80;;;15.50;95.00;;;;;;5112704;28;20040;-78
2024/03/19 03:36:44;;;;;;;20.02;10.45;;;15.40;95.00;;;;;;5113807;28;20057;-78
2024/03/19 03:39:12;;;;;;;21.02;11.10;;;15.40;95.00;;;;;;5113035;28;20055;-78
2024/03/19 03:41:38;;;;;;;16.20;10.40;;;15.40;95.20;;;;;;5112572;28;20059;-78
2024/03/19 03:44:05;;;;;;;21.77;11.88;;;15.40;95.20;;;;;;5112874;28;20028;-78
2024/03/19 03:46:31;;;;;;;22.35;11.07;;;15.30;95.20;;;;;;5112364;28;20059;-78
2024/03/19 03:48:56;;;;;;;24.15;11.13;;;15.30;95.30;;;;;;5112939;28;20051;-78
2024/03/19 03:51:22;;;;;;;21.23;11.15;;;15.30;95.40;;;;;;5112753;28;20430;-77
2024/03/19 03:53:48;;;;;;;22.02;10.65;;;15.30;95.40;;;;;;5112316;28;20019;-79
2024/03/19 03:56:13;;;;;;;22.85;11.70;;;15.20;95.40;;;;;;5112326;28;20035;-78
2024/03/19 03:58:39;;;;;;;24.60;12.70;;;15.20;95.50;;;;;;5112558;28;20067;-78
2024/03/19 04:01:09;;;;;;;19.83;11.65;;;15.10;95.50;;;;;;5112085;28;20036;-77
2024/03/19 04:03:34;;;;;;;20.23;11.20;;;15.10;95.60;;;;;;5112467;28;20111;-78
2024/03/19 04:06:00;;;;;;;23.08;11.15;;;15.10;95.70;;;;;;5112400;28;20492;-77
2024/03/19 04:08:26;;;;;;;20.45;11.93;;;15.10;95.80;;;;;;5115644;28;20111;-77
2024/03/19 04:10:52;;;;;;;21.98;10.90;;;15.10;95.90;;;;;;5115790;28;20146;-78
2024/03/19 04:13:17;;;;;;;23.63;11.10;;;15.00;95.80;;;;;;5116008;28;20032;-77
2024/03/19 04:15:43;;;;;;;23.60;11.63;;;15.00;95.80;;;;;;5115819;28;20032;-78
2024/03/19 04:18:09;;;;;;;22.75;12.35;;;15.10;95.90;;;;;;5111693;22;20056;-78
2024/03/19 04:20:35;;;;;;;21.15;10.82;;;15.00;95.90;;;;;;5095843;28;20043;-78
2024/03/19 04:23:01;;;;;;;23.58;11.63;;;15.00;95.90;;;;;;5095755;28;20037;-78
2024/03/19 04:25:27;;;;;;;21.77;11.70;;;15.00;96.00;;;;;;5095463;28;20441;-78
2024/03/19 04:27:53;;;;;;;18.67;9.20;;;14.90;96.10;;;;;;5095610;28;20036;-78
2024/03/19 04:30:18;;;;;;;22.20;10.30;;;14.90;96.00;;;;;;5095628;28;20505;-79
2024/03/19 04:32:44;;;;;;;19.92;9.07;;;14.90;95.90;;;;;;5095434;28;20040;-77
2024/03/19 04:35:10;;;;;;;23.05;8.43;;;14.90;96.00;;;;;;5095425;28;20085;-77
2024/03/19 04:37:35;;;;;;;16.85;8.70;;;14.80;95.90;;;;;;5095334;28;20395;-79
2024/03/19 04:40:01;;;;;;;15.80;8.63;;;14.80;95.80;;;;;;5095270;28;20112;-78
2024/03/19 04:42:26;;;;;;;15.27;7.93;;;14.70;95.80;;;;;;5095295;28;20036;-77
2024/03/19 04:44:52;;;;;;;14.55;7.25;;;14.70;95.80;;;;;;5095023;28;20028;-78
2024/03/19 04:47:19;;;;;;;14.02;7.20;;;14.70;95.80;;;;;;5095173;28;20111;-78
2024/03/19 04:49:45;;;;;;;16.98;7.78;;;14.70;95.70;;;;;;5095220;28;20024;-77
2024/03/19 04:52:11;;;;;;;17.80;7.38;;;14.70;95.60;;;;;;5095113;28;20047;-77
2024/03/19 04:54:37;;;;;;;13.27;8.18;;;14.70;95.60;;;;;;5095040;28;20028;-77
2024/03/19 04:57:02;;;;;;;15.98;7.75;;;14.60;95.40;;;;;;5095576;28;20344;-77
2024/03/19 04:59:28;;;;;;;14.52;7.60;;;14.60;95.40;;;;;;5094841;28;20039;-78
2024/03/19 05:01:54;;;;;;;14.05;7.97;;;14.60;95.70;;;;;;5076787;28;20066;-77
2024/03/19 05:04:20;;;;;;;14.15;7.60;;;14.60;95.30;;;;;;5094639;28;20032;-78
2024/03/19 05:06:46;;;;;;;16.35;7.88;;;14.50;95.30;;;;;;5094972;28;20024;-77
2024/03/19 05:09:14;;;;;;;13.98;7.55;;;14.50;95.30;;;;;;5094895;28;20535;-78
2024/03/19 05:11:40;;;;;;;11.65;7.20;;;14.50;95.40;;;;;;5094609;28;20040;-79
2024/03/19 05:14:06;;;;;;;15.93;8.05;;;14.50;95.30;;;;;;5094523;28;20173;-77
2024/03/19 05:16:31;;;;;;;13.85;8.00;;;14.50;95.40;;;;;;5094374;28;20499;-79
2024/03/19 05:18:57;;;;;;;11.50;7.60;;;14.40;95.40;;;;;;5093947;28;20040;-78
2024/03/19 05:21:22;;;;;;;14.05;8.00;;;14.40;95.30;;;;;;5094725;28;20039;-77
2024/03/19 05:23:48;;;;;;;13.95;8.15;;;14.40;95.30;;;;;;5094527;28;20034;-78
2024/03/19 05:26:14;;;;;;;14.70;8.07;;;14.40;95.30;;;;;;5076550;28;20177;-78
2024/03/19 05:28:39;;;;;;;13.75;8.00;;;14.40;95.30;;;;;;5094241;28;20032;-77
2024/03/19 05:31:23;;;;;;;12.00;7.40;;;14.30;95.30;;;;;;5094492;28;20400;-77
2024/03/19 05:33:52;;;;;;;14.40;8.00;;;14.30;95.40;;;;;;5094789;28;20396;-78
2024/03/19 05:36:18;;;;;;;14.43;8.00;;;14.30;95.30;;;;;;5094738;28;20266;-78
2024/03/19 05:38:44;;;;;;;14.38;7.45;;;14.30;95.20;;;;;;5094524;28;20032;-79
2024/03/19 05:41:11;;;;;;;14.40;8.10;;;14.40;95.10;;;;;;5094278;28;20039;-77
2024/03/19 05:43:36;;;;;;;13.20;7.40;;;14.40;95.10;;;;;;5094358;28;20563;-78
2024/03/19 05:46:02;;;;;;;11.90;7.72;;;14.40;95.10;;;;;;5094470;28;20064;-78
2024/03/19 05:48:27;;;;;;;12.38;7.43;;;14.40;95.10;;;;;;5093982;28;20428;-79
2024/03/19 05:50:53;;;;;;;13.05;7.60;;;14.50;95.00;;;;;;5093944;28;20402;-78
2024/03/19 05:53:19;;;;;;;14.80;7.68;;;14.50;94.90;;;;;;5094086;28;20070;-79
2024/03/19 05:55:44;;;;;;;15.35;7.50;;;14.50;94.80;;;;;;5094387;28;20032;-80
2024/03/19 05:58:10;;;;;;;12.07;7.57;;;14.50;94.70;;;;;;5094298;28;20035;-78
2024/03/19 06:00:35;;;;;;;11.32;7.35;;;14.50;94.70;;;;;;5094316;28;20184;-79
2024/03/19 06:03:01;;;;;;;12.27;7.50;;;14.50;94.60;;;;;;5094149;28;20348;-80
2024/03/19 06:05:27;;;;;;;13.23;7.13;;;14.50;94.60;;;;;;5094016;28;20036;-78
2024/03/19 06:07:53;;;;;;;11.57;8.15;;;14.50;94.70;;;;;;5075998;28;20074;-78
2024/03/19 06:10:18;;;;;;;14.85;7.20;;;14.50;94.50;;;;;;5094233;28;20074;-80
2024/03/19 06:12:44;;;;;;;14.85;8.32;;;14.50;94.60;;;;;;5094186;28;20372;-79
2024/03/19 06:15:10;;;;;;;13.07;7.30;;;14.60;94.40;;;;;;5094199;28;20082;-79
2024/03/19 06:17:36;;;;;;;12.80;7.00;;;15.00;94.30;;;;;;5075259;28;20044;-79
2024/03/19 06:20:04;;;;;;;13.88;6.95;;;16.10;93.30;;;;;;5094007;28;20426;-79
2024/03/19 06:22:29;;;;;;;12.50;7.78;;;17.10;91.90;;;;;;5093902;28;20036;-79
2024/03/19 06:24:55;;;;;;;13.40;6.60;;;17.70;91.00;;;;;;5093833;28;20039;-79
2024/03/19 06:27:21;;;;;;;9.85;6.47;;;18.30;90.00;;;;;;5094074;28;20032;-79
2024/03/19 06:29:46;;;;;;;12.65;6.40;;;18.90;88.00;;;;;;5093546;28;20502;-79
2024/03/19 06:32:13;;;;;;;9.75;6.15;;;19.00;86.30;;;;;;5093375;28;20506;-78
2024/03/19 06:34:39;;;;;;;11.23;6.15;;;19.30;85.40;;;;;;5093107;28;20027;-79
2024/03/19 06:37:05;;;;;;;10.88;6.85;;;19.70;84.40;;;;;;5093256;28;20036;-80
2024/03/19 06:39:30;;;;;;;10.32;6.20;;;20.30;83.50;;;;;;5093227;28;20455;-79
2024/03/19 06:41:56;;;;;;;10.10;5.65;;;20.80;81.60;;;;;;5093077;28;20100;-78
2024/03/19 06:44:22;;;;;;;10.52;5.88;;;21.30;79.50;;;;;;5093248;28;20024;-76
2024/03/19 06:46:47;;;;;;;10.50;5.65;;;21.70;77.90;;;;;;5093476;28;20032;-75
2024/03/19 06:49:13;;;;;;;11.27;5.88;;;22.20;76.50;;;;;;5075005;28;20584;-78
2024/03/19 06:51:39;;;;;;;8.52;4.95;;;22.40;75.00;;;;;;5093562;28;20052;-78
2024/03/19 06:54:05;;;;;;;9.27;6.20;;;22.40;74.10;;;;;;5075759;28;20498;-77
2024/03/19 06:56:31;;;;;;;9.50;5.78;;;22.40;73.50;;;;;;5093330;28;20085;-78
2024/03/19 06:58:57;;;;;;;11.90;5.65;;;22.60;72.80;;;;;;5093449;28;20131;-80
2024/03/19 07:01:22;;;;;;;11.80;6.07;;;23.10;71.80;;;;;;5075180;28;20368;-79
2024/03/19 07:03:48;;;;;;;9.20;5.32;;;23.60;70.70;;;;;;5092331;28;20064;-80
2024/03/19 07:06:13;;;;;;;9.13;6.18;;;23.90;69.80;;;;;;5092352;28;20082;-79
2024/03/19 07:08:41;;;;;;;10.35;5.93;;;24.10;69.20;;;;;;5092286;28;20097;-79
2024/03/19 07:11:09;;;;;;;8.90;5.97;;;24.00;69.00;;;;;;5092453;28;20074;-79
2024/03/19 07:13:35;;;;;;;11.98;6.25;;;24.20;68.50;;;;;;5093701;28;20032;-81
2024/03/19 07:16:01;;;;;;;10.90;6.30;;;24.20;67.60;;;;;;5092756;28;20476;-80
2024/03/19 07:18:27;;;;;;;11.43;6.68;;;24.20;67.10;;;;;;5093055;28;20044;-80
2024/03/19 07:20:55;;;;;;;11.13;6.60;;;24.40;67.10;;;;;;5092625;28;20071;-77
2024/03/19 07:23:21;;;;;;;9.82;6.68;;;24.30;66.30;;;;;;5092609;28;20025;-79
2024/03/19 07:25:46;;;;;;;12.93;6.65;;;24.30;66.00;;;;;;5074291;28;20039;-79
2024/03/19 07:28:12;;;;;;;10.45;7.20;;;24.20;66.20;;;;;;5092515;28;20036;-80
2024/03/19 07:30:38;;;;;;;12.98;6.53;;;24.50;65.30;;;;;;5092255;28;20028;-79
2024/03/19 07:33:04;;;;;;;18.77;7.05;;;24.80;64.80;;;;;;5092218;28;20071;-79
2024/03/19 07:35:30;;;;;;;11.48;6.13;;;24.60;63.90;;;;;;5092342;28;20104;-80
2024/03/19 07:37:56;;;;;;;11.15;6.65;;;23.80;65.20;;;;;;5092309;28;20060;-78
2024/03/19 07:40:21;;;;;;;11.20;6.60;;;22.60;67.60;;;;;;5074042;28;20073;-79
2024/03/19 07:42:51;;;;;;;12.27;6.10;;;21.60;69.40;;;;;;5094477;28;20085;-78
2024/03/19 07:45:17;;;;;;;11.25;6.30;;;20.80;71.30;;;;;;5096141;28;20043;-79
2024/03/19 07:47:43;;;;;;;12.93;6.18;;;20.20;72.70;;;;;;5095958;28;20032;-79
2024/03/19 07:50:17;;;;;;;8.45;5.63;;;19.90;73.90;;;;;;5077682;28;20445;-79
2024/03/19 07:52:44;;;;;;;10.40;5.93;;;19.60;74.80;;;;;;5095684;28;20476;-79
2024/03/19 07:55:10;;;;;;;10.25;5.70;;;19.30;75.40;;;;;;5095941;28;20024;-80
2024/03/19 07:57:35;;;;;;;8.05;5.40;;;19.10;76.20;;;;;;5095887;28;20032;-80
2024/03/19 08:00:09;;;;;;;11.65;5.15;;;18.90;76.40;;;;;;5096097;28;20035;-82
2024/03/19 08:02:37;;;;;;;10.40;5.43;;;18.80;76.90;;;;;;5095889;28;20441;-77
2024/03/19 08:05:03;;;;;;;8.55;5.20;;;18.60;77.10;;;;;;5077229;28;20057;-75
2024/03/19 08:07:28;;;;;;;10.40;4.75;;;18.60;77.50;;;;;;5095765;28;20081;-75
2024/03/19 08:09:54;;;;;;;7.60;4.55;;;18.50;77.50;;;;;;5095272;28;20040;-74
2024/03/19 08:12:20;;;;;;;7.88;4.55;;;18.30;77.70;;;;;;5095323;28;20036;-74
2024/03/19 08:14:45;;;;;;;6.85;4.60;;;18.10;78.10;;;;;;5095164;28;20476;-73
2024/03/19 08:17:12;;;;;;;9.38;5.20;;;18.00;78.60;;;;;;5095159;28;20093;-74
2024/03/19 08:19:38;;;;;;;9.80;4.38;;;17.90;78.90;;;;;;5095181;28;20438;-74
2024/03/19 08:22:05;;;;;;;8.73;4.50;;;17.90;79.50;;;;;;5095232;28;20032;-72
2024/03/19 08:24:31;;;;;;;14.15;4.82;;;17.80;79.60;;;;;;5095284;28;20040;-72
2024/03/19 08:26:57;;;;;;;8.48;3.75;;;17.80;79.90;;;;;;5095506;28;20048;-73
2024/03/19 08:29:22;;;;;;;7.15;3.40;;;17.70;79.70;;;;;;5095282;28;20107;-73
2024/03/19 08:31:48;;;;;;;6.47;3.55;;;17.70;79.40;;;;;;5095217;28;20499;-73
2024/03/19 08:34:14;;;;;;;6.50;2.90;;;17.70;79.40;;;;;;5095244;28;20459;-73
2024/03/19 08:36:40;;;;;;;7.72;3.90;;;17.60;79.30;;;;;;5077107;28;20131;-77
2024/03/19 08:39:06;;;;;;;6.10;3.13;;;17.70;79.40;;;;;;5095131;28;20036;-75
2024/03/19 08:41:31;;;;;;;6.82;3.42;;;17.70;79.20;;;;;;5095076;28;20115;-75
2024/03/19 08:43:57;;;;;;;5.20;2.83;;;17.70;79.00;;;;;;5095132;28;20118;-74
2024/03/19 08:46:22;;;;;;;6.20;3.13;;;17.70;78.70;;;;;;5094812;28;20032;-74
2024/03/19 08:48:48;;;;;;;6.90;2.95;;;17.70;79.00;;;;;;5095074;28;20032;-74
2024/03/19 08:51:15;;;;;;;6.15;3.20;;;17.70;78.80;;;;;;5095272;28;20040;-75
2024/03/19 08:53:42;;;;;;;8.10;3.05;;;17.70;78.80;;;;;;5093937;28;20044;-75
2024/03/19 08:56:08;;;;;;;8.68;2.97;;;17.70;78.70;;;;;;5094885;28;20044;-75
2024/03/19 08:58:34;;;;;;;6.18;3.40;;;17.80;78.70;;;;;;5094934;28;20028;-73
2024/03/19 09:01:00;;;;;;;7.15;2.90;;;17.90;78.60;;;;;;5094906;28;20040;-74
2024/03/19 09:03:25;;;;;;;5.90;3.08;;;17.90;78.40;;;;;;5076642;28;20111;-74
2024/03/19 09:06:00;;;;;;;7.05;2.80;;;17.90;78.20;;;;;;5095126;28;20036;-75
2024/03/19 09:08:26;;;;;;;4.90;3.15;;;17.90;78.10;;;;;;5094645;28;20047;-74
2024/03/19 09:10:55;;;;;;;5.55;3.13;;;17.90;78.20;;;;;;5094223;28;20032;-75
2024/03/19 09:13:21;;;;;;;27.25;4.35;;;17.80;78.10;;;;;;5094407;28;20036;-73
2024/03/19 09:15:47;;;;;;;6.72;3.38;;;17.90;78.30;;;;;;5094050;28;20065;-73
2024/03/19 09:18:14;;;;;;;6.72;3.53;;;18.00;78.10;;;;;;5094052;28;20047;-73
2024/03/19 09:20:39;;;;;;;5.18;3.03;;;18.00;78.10;;;;;;5093977;28;20318;-75
2024/03/19 09:23:05;;;;;;;7.05;3.25;;;18.10;78.00;;;;;;5094104;28;20036;-74
2024/03/19 09:25:31;;;;;;;14.45;3.75;;;18.10;77.90;;;;;;5093874;28;20428;-74
2024/03/19 09:27:57;;;;;;;7.93;3.28;;;18.10;78.50;;;;;;5093986;28;20035;-75
2024/03/19 09:30:22;;;;;;;9.25;3.25;;;18.20;77.70;;;;;;5093727;28;20034;-74
2024/03/19 09:32:49;;;;;;;6.85;3.38;;;18.40;77.50;;;;;;5093769;28;20040;-73
2024/03/19 09:35:15;;;;;;;5.20;2.80;;;18.40;77.20;;;;;;5094006;28;20031;-73
2024/03/19 09:37:44;;;;;;;5.93;2.58;;;18.50;76.90;;;;;;5093850;28;20029;-74
2024/03/19 09:40:10;;;;;;;13.65;3.80;;;18.50;76.50;;;;;;5094032;28;20036;-73
2024/03/19 09:42:37;;;;;;;6.80;3.20;;;18.60;76.70;;;;;;5075367;28;20068;-74
2024/03/19 09:45:05;;;;;;;7.50;2.90;;;18.60;76.30;;;;;;5093928;28;20032;-74
2024/03/19 09:47:32;;;;;;;7.88;2.55;;;18.70;76.30;;;;;;5093955;28;20028;-74
2024/03/19 09:50:03;;;;;;;13.70;3.08;;;18.70;76.10;;;;;;5075465;28;20036;-75
2024/03/19 09:52:29;;;;;;;6.60;3.28;;;18.80;76.20;;;;;;5093423;28;20044;-74
2024/03/19 09:54:55;;;;;;;7.25;3.40;;;18.80;75.80;;;;;;5093550;28;20081;-75
2024/03/19 09:57:21;;;;;;;8.55;3.97;;;18.80;75.70;;;;;;5093254;28;20123;-75
2024/03/19 09:59:48;;;;;;;6.35;3.50;;;18.90;75.40;;;;;;5093635;28;20028;-75
2024/03/19 10:02:19;;;;;;;9.25;3.83;;;18.90;75.30;;;;;;5093429;28;20028;-74
2024/03/19 10:04:49;;;;;;;7.82;3.60;;;18.90;75.50;;;;;;5075075;28;20029;-75
2024/03/19 10:07:16;;;;;;;11.93;4.35;;;19.00;75.50;;;;;;5093551;28;20028;-75
2024/03/19 10:09:46;;;;;;;11.23;4.28;;;19.10;75.30;;;;;;5093655;28;20380;-74
2024/03/19 10:12:13;;;;;;;11.05;4.55;;;19.20;75.30;;;;;;5093774;28;20047;-75
2024/03/19 10:14:39;;;;;;;16.77;5.20;;;19.40;75.10;;;;;;5074895;28;20028;-74
2024/03/19 10:17:06;;;;;;;12.75;5.22;;;19.40;75.00;;;;;;5092995;28;20384;-74
2024/03/19 10:19:32;;;;;;;8.20;5.65;;;19.50;75.10;;;;;;5075030;28;20063;-74
2024/03/19 10:21:59;;;;;;;7.78;4.50;;;19.60;74.90;;;;;;5093564;28;20063;-75
2024/03/19 10:24:24;;;;;;;9.13;5.25;;;19.70;74.70;;;;;;5093032;28;20066;-73
2024/03/19 10:26:51;;;;;;;13.85;5.60;;;19.70;74.50;;;;;;5074720;28;20763;-74
2024/03/19 10:29:17;;;;;;;19.00;5.57;;;19.80;74.50;;;;;;5092970;28;20468;-74
2024/03/19 10:31:44;;;;;;;10.52;5.38;;;19.80;74.40;;;;;;5092752;28;20044;-74
2024/03/19 10:34:20;;;;;;;11.82;4.90;;;19.90;73.80;;;;;;5092871;28;20071;-74
2024/03/19 10:36:50;;;;;;;15.00;5.68;;;20.00;73.90;;;;;;5092811;28;20518;-74
2024/03/19 10:39:17;;;;;;;8.40;5.60;;;20.10;73.90;;;;;;5092710;28;20030;-74
2024/03/19 10:41:46;;;;;;;9.85;5.45;;;20.10;73.90;;;;;;5092835;28;20046;-73
2024/03/19 10:44:18;;;;;;;8.73;5.30;;;20.20;73.80;;;;;;5092560;28;20031;-74
2024/03/19 10:46:45;;;;;;;12.15;6.78;;;20.30;73.70;;;;;;5092672;28;20422;-73
2024/03/19 10:49:18;;;;;;;11.73;6.95;;;20.50;73.80;;;;;;5092959;28;20032;-74
2024/03/19 10:51:54;;;;;;;8.57;6.03;;;20.60;73.50;;;;;;5092770;28;20495;-74
2024/03/19 10:54:22;;;;;;;12.45;6.57;;;20.70;73.30;;;;;;5092380;28;20161;-74
2024/03/19 10:56:49;;;;;;;13.40;6.28;;;20.80;73.40;;;;;;5092515;28;20040;-73
2024/03/19 10:59:15;;;;;;;13.98;6.28;;;20.80;73.40;;;;;;5092212;28;20153;-74
2024/03/19 11:01:54;;;;;;;14.38;6.55;;;20.80;73.50;;;;;;5092236;28;20598;-73
2024/03/19 11:04:26;;;;;;;14.35;6.95;;;20.90;73.40;;;;;;5092413;28;20047;-76
2024/03/19 11:06:56;;;;;;;12.55;6.18;;;21.00;73.90;;;;;;5092880;28;20028;-80
2024/03/19 11:09:24;;;;;;;12.73;6.80;;;21.10;73.30;;;;;;5092604;28;20042;-79
2024/03/19 11:12:00;;;;;;;15.35;6.53;;;21.20;73.10;;;;;;5093038;28;20067;-83
2024/03/19 11:14:29;;;;;;;11.48;5.97;;;21.20;72.90;;;;;;5092394;28;20499;-79
2024/03/19 11:16:54;;;;;;;17.95;6.82;;;21.20;72.90;;;;;;5091636;28;20052;-76
2024/03/19 11:19:22;;;;;;;17.58;7.03;;;21.10;73.00;;;;;;5074372;28;20112;-78
2024/03/19 11:21:52;;;;;;;11.77;6.43;;;21.00;72.90;;;;;;5092485;28;20043;-79
2024/03/19 11:24:28;;;;;;;12.65;7.28;;;21.00;73.00;;;;;;5092379;28;20040;-74
2024/03/19 11:26:57;;;;;;;13.98;6.15;;;21.10;73.30;;;;;;5100370;28;20032;-73
2024/03/19 11:29:27;;;;;;;11.02;6.55;;;21.20;72.90;;;;;;5111951;28;20035;-74
2024/03/19 11:31:56;;;;;;;11.52;5.97;;;21.30;72.60;;;;;;5111790;28;20039;-73
2024/03/19 11:34:21;;;;;;;15.40;6.30;;;21.40;72.50;;;;;;5111683;28;20035;-73
2024/03/19 11:36:48;;;;;;;12.85;5.95;;;21.50;72.50;;;;;;5094525;28;20032;-72
2024/03/19 11:39:15;;;;;;;12.20;6.28;;;21.50;72.10;;;;;;5091248;28;20040;-74
2024/03/19 11:41:41;;;;;;;10.07;5.25;;;21.50;72.00;;;;;;5091719;28;20035;-74
2024/03/19 11:44:13;;;;;;;8.93;5.45;;;21.60;71.70;;;;;;5099368;28;20031;-74
2024/03/19 11:46:38;;;;;;;11.82;5.22;;;21.70;71.60;;;;;;5095760;28;20023;-74
2024/03/19 11:49:04;;;;;;;11.05;6.00;;;21.70;71.10;;;;;;5091329;28;20407;-75
2024/03/19 11:51:30;;;;;;;9.38;4.93;;;21.80;71.20;;;;;;5091682;28;20024;-76
2024/03/19 11:54:01;;;;;;;9.68;4.93;;;21.80;70.30;;;;;;5090954;28;20081;-79
2024/03/19 11:56:28;;;;;;;9.38;4.85;;;21.90;70.20;;;;;;5091313;28;20107;-76
2024/03/19 11:58:54;;;;;;;8.98;5.10;;;22.10;70.10;;;;;;5091710;28;20036;-76
2024/03/19 12:01:22;;;;;;;14.07;5.10;;;22.20;70.20;;;;;;5091456;28;20047;-78
2024/03/19 12:03:48;;;;;;;8.18;4.40;;;22.20;69.90;;;;;;5089922;28;20066;-77
2024/03/19 12:06:13;;;;;;;10.07;4.97;;;22.20;69.70;;;;;;5101913;28;20520;-73
2024/03/19 12:08:39;;;;;;;8.95;4.47;;;22.20;69.70;;;;;;5087617;28;20090;-76
2024/03/19 12:11:05;;;;;;;10.35;5.20;;;22.20;69.20;;;;;;5091056;28;20036;-76
2024/03/19 12:13:35;;;;;;;12.63;4.97;;;22.30;68.90;;;;;;5090644;28;20102;-76
2024/03/19 12:16:01;;;;;;;8.95;4.88;;;22.30;68.70;;;;;;5090797;28;20028;-75
2024/03/19 12:18:27;;;;;;;7.97;4.43;;;22.40;68.70;;;;;;5090822;28;20071;-75
2024/03/19 12:20:52;;;;;;;6.68;3.92;;;22.40;68.30;;;;;;5101584;28;20099;-73
2024/03/19 12:23:18;;;;;;;7.05;4.03;;;22.50;68.30;;;;;;5111182;28;20040;-75
2024/03/19 12:25:45;;;;;;;8.68;4.35;;;22.70;67.60;;;;;;5102778;28;20036;-76
2024/03/19 12:28:17;;;;;;;10.63;4.45;;;22.80;67.00;;;;;;5092168;28;20168;-76
2024/03/19 12:30:44;;;;;;;7.85;4.00;;;23.00;66.90;;;;;;5094740;28;20024;-75
2024/03/19 12:33:20;;;;;;;12.02;3.72;;;23.20;66.50;;;;;;5094619;28;20083;-76
2024/03/19 12:35:48;;;;;;;10.02;3.83;;;23.20;65.70;;;;;;5093909;28;20107;-76